sensor_id;sensor_type;location;lat;lon;timestamp;P1;durP1;ratioP1;P2;durP2;ratioP2
70369;SDS011;57790;51.356;-2.906;2023-08-08T00:02:30;2.07;;;0.80;;
70369;SDS011;57790;51.356;-2.906;2023-08-08T00:05:30;2.77;;;0.80;;
70369;SDS011;57790;51.356;-2.906;2023-08-08T00:08:31;2.85;;;0.70;;
70369;SDS011;57790;51.356;-2.906;2023-08-08T00:11:31;2.70;;;0.70;;
70369;SDS011;57790;51.356;-2.906;2023-08-08T00:14:32;2.67;;;0.60;;
70369;SDS011;57790;51.356;-2.906;2023-08-08T00:17:32;3.05;;;0.65;;
70369;SDS011;57790;51.356;-2.906;2023-08-08T00:20:32;2.87;;;0.60;;
70369;SDS011;57790;51.356;-2.906;2023-08-08T00:23:33;2.40;;;0.70;;
70369;SDS011;57790;51.356;-2.906;2023-08-08T00:26:33;3.30;;;0.70;;
70369;SDS011;57790;51.356;-2.906;2023-08-08T00:29:34;4.37;;;0.70;;
70369;SDS011;57790;51.356;-2.906;2023-08-08T00:32:34;2.03;;;0.60;;
70369;SDS011;57790;51.356;-2.906;2023-08-08T00:35:35;2.83;;;0.70;;
70369;SDS011;57790;51.356;-2.906;2023-08-08T00:38:35;2.23;;;0.60;;
70369;SDS011;57790;51.356;-2.906;2023-08-08T00:41:35;2.87;;;0.80;;
70369;SDS011;57790;51.356;-2.906;2023-08-08T00:44:36;4.45;;;0.80;;
70369;SDS011;57790;51.356;-2.906;2023-08-08T00:47:37;2.90;;;0.60;;
70369;SDS011;57790;51.356;-2.906;2023-08-08T00:50:41;2.55;;;0.68;;
70369;SDS011;57790;51.356;-2.906;2023-08-08T00:53:43;2.30;;;0.60;;
70369;SDS011;57790;51.356;-2.906;2023-08-08T00:56:44;3.13;;;0.70;;
70369;SDS011;57790;51.356;-2.906;2023-08-08T00:59:45;2.65;;;0.68;;
70369;SDS011;57790;51.356;-2.906;2023-08-08T01:02:45;3.37;;;0.60;;
70369;SDS011;57790;51.356;-2.906;2023-08-08T01:05:51;2.77;;;0.70;;
70369;SDS011;57790;51.356;-2.906;2023-08-08T01:09:00;2.05;;;0.80;;
70369;SDS011;57790;51.356;-2.906;2023-08-08T01:12:09;2.53;;;0.93;;
70369;SDS011;57790;51.356;-2.906;2023-08-08T01:15:13;2.67;;;0.60;;
70369;SDS011;57790;51.356;-2.906;2023-08-08T01:18:14;2.13;;;0.50;;
70369;SDS011;57790;51.356;-2.906;2023-08-08T01:21:16;2.53;;;0.65;;
70369;SDS011;57790;51.356;-2.906;2023-08-08T01:24:20;2.07;;;0.70;;
70369;SDS011;57790;51.356;-2.906;2023-08-08T01:27:25;2.43;;;0.80;;
70369;SDS011;57790;51.356;-2.906;2023-08-08T01:30:26;1.65;;;0.63;;
70369;SDS011;57790;51.356;-2.906;2023-08-08T01:33:26;2.67;;;0.60;;
70369;SDS011;57790;51.356;-2.906;2023-08-08T01:40:03;1.38;;;0.40;;
70369;SDS011;57790;51.356;-2.906;2023-08-08T01:43:06;2.97;;;0.70;;
70369;SDS011;57790;51.356;-2.906;2023-08-08T01:46:07;2.17;;;0.65;;
70369;SDS011;57790;51.356;-2.906;2023-08-08T01:49:09;1.60;;;0.50;;
70369;SDS011;57790;51.356;-2.906;2023-08-08T01:52:09;1.67;;;0.50;;
70369;SDS011;57790;51.356;-2.906;2023-08-08T01:55:10;2.00;;;0.50;;
70369;SDS011;57790;51.356;-2.906;2023-08-08T01:58:10;2.87;;;0.70;;
70369;SDS011;57790;51.356;-2.906;2023-08-08T02:01:11;2.13;;;0.50;;
70369;SDS011;57790;51.356;-2.906;2023-08-08T02:04:11;1.70;;;0.50;;
70369;SDS011;57790;51.356;-2.906;2023-08-08T02:07:12;2.87;;;0.60;;
70369;SDS011;57790;51.356;-2.906;2023-08-08T02:10:12;1.60;;;0.67;;
70369;SDS011;57790;51.356;-2.906;2023-08-08T02:13:14;4.33;;;0.77;;
70369;SDS011;57790;51.356;-2.906;2023-08-08T02:16:14;2.38;;;0.60;;
70369;SDS011;57790;51.356;-2.906;2023-08-08T02:19:15;3.70;;;0.80;;
70369;SDS011;57790;51.356;-2.906;2023-08-08T02:22:16;3.23;;;0.67;;
70369;SDS011;57790;51.356;-2.906;2023-08-08T02:25:17;2.88;;;0.93;;
70369;SDS011;57790;51.356;-2.906;2023-08-08T02:28:18;2.57;;;0.70;;
70369;SDS011;57790;51.356;-2.906;2023-08-08T02:31:18;4.90;;;0.70;;
70369;SDS011;57790;51.356;-2.906;2023-08-08T02:34:20;2.25;;;0.65;;
70369;SDS011;57790;51.356;-2.906;2023-08-08T02:37:21;4.10;;;0.83;;
70369;SDS011;57790;51.356;-2.906;2023-08-08T02:40:22;2.93;;;0.90;;
70369;SDS011;57790;51.356;-2.906;2023-08-08T02:43:26;2.70;;;0.60;;
70369;SDS011;57790;51.356;-2.906;2023-08-08T02:46:27;2.90;;;0.60;;
70369;SDS011;57790;51.356;-2.906;2023-08-08T02:49:27;2.67;;;0.60;;
70369;SDS011;57790;51.356;-2.906;2023-08-08T02:52:28;2.50;;;0.60;;
70369;SDS011;57790;51.356;-2.906;2023-08-08T02:55:29;1.60;;;0.60;;
70369;SDS011;57790;51.356;-2.906;2023-08-08T02:58:29;2.57;;;0.80;;
70369;SDS011;57790;51.356;-2.906;2023-08-08T03:01:29;2.43;;;0.70;;
70369;SDS011;57790;51.356;-2.906;2023-08-08T03:04:30;2.37;;;0.60;;
70369;SDS011;57790;51.356;-2.906;2023-08-08T03:07:30;2.57;;;0.60;;
70369;SDS011;57790;51.356;-2.906;2023-08-08T03:10:31;1.87;;;0.63;;
70369;SDS011;57790;51.356;-2.906;2023-08-08T03:13:31;2.47;;;0.60;;
70369;SDS011;57790;51.356;-2.906;2023-08-08T03:16:31;1.50;;;0.60;;
70369;SDS011;57790;51.356;-2.906;2023-08-08T03:19:32;2.20;;;0.60;;
70369;SDS011;57790;51.356;-2.906;2023-08-08T03:22:32;2.03;;;0.60;;
70369;SDS011;57790;51.356;-2.906;2023-08-08T03:25:33;3.50;;;0.70;;
70369;SDS011;57790;51.356;-2.906;2023-08-08T03:28:33;3.07;;;0.90;;
70369;SDS011;57790;51.356;-2.906;2023-08-08T03:31:34;2.10;;;0.70;;
70369;SDS011;57790;51.356;-2.906;2023-08-08T03:34:34;4.43;;;0.77;;
70369;SDS011;57790;51.356;-2.906;2023-08-08T03:37:34;2.80;;;0.87;;
70369;SDS011;57790;51.356;-2.906;2023-08-08T03:40:35;3.33;;;0.80;;
70369;SDS011;57790;51.356;-2.906;2023-08-08T03:43:35;3.07;;;0.73;;
70369;SDS011;57790;51.356;-2.906;2023-08-08T03:46:36;2.07;;;0.77;;
70369;SDS011;57790;51.356;-2.906;2023-08-08T03:49:36;3.03;;;0.73;;
70369;SDS011;57790;51.356;-2.906;2023-08-08T03:52:36;4.13;;;0.97;;
70369;SDS011;57790;51.356;-2.906;2023-08-08T03:55:38;3.28;;;0.80;;
70369;SDS011;57790;51.356;-2.906;2023-08-08T03:58:38;2.78;;;0.70;;
70369;SDS011;57790;51.356;-2.906;2023-08-08T04:01:39;3.13;;;0.87;;
70369;SDS011;57790;51.356;-2.906;2023-08-08T04:04:39;3.13;;;1.00;;
70369;SDS011;57790;51.356;-2.906;2023-08-08T04:07:39;2.70;;;0.70;;
70369;SDS011;57790;51.356;-2.906;2023-08-08T04:10:40;3.60;;;0.80;;
70369;SDS011;57790;51.356;-2.906;2023-08-08T04:13:41;2.50;;;0.85;;
70369;SDS011;57790;51.356;-2.906;2023-08-08T04:16:42;3.10;;;0.90;;
70369;SDS011;57790;51.356;-2.906;2023-08-08T04:19:42;3.57;;;0.67;;
70369;SDS011;57790;51.356;-2.906;2023-08-08T04:22:43;2.80;;;0.80;;
70369;SDS011;57790;51.356;-2.906;2023-08-08T04:25:44;4.22;;;0.88;;
70369;SDS011;57790;51.356;-2.906;2023-08-08T04:28:44;3.23;;;0.87;;
70369;SDS011;57790;51.356;-2.906;2023-08-08T04:31:45;3.28;;;0.80;;
70369;SDS011;57790;51.356;-2.906;2023-08-08T04:34:45;3.33;;;0.93;;
70369;SDS011;57790;51.356;-2.906;2023-08-08T04:37:46;4.37;;;1.00;;
70369;SDS011;57790;51.356;-2.906;2023-08-08T04:40:46;2.70;;;0.83;;
70369;SDS011;57790;51.356;-2.906;2023-08-08T04:43:46;4.05;;;0.90;;
70369;SDS011;57790;51.356;-2.906;2023-08-08T04:46:47;3.53;;;0.93;;
70369;SDS011;57790;51.356;-2.906;2023-08-08T04:49:47;2.77;;;0.80;;
70369;SDS011;57790;51.356;-2.906;2023-08-08T04:52:48;5.50;;;0.90;;
70369;SDS011;57790;51.356;-2.906;2023-08-08T04:55:48;4.00;;;0.90;;
70369;SDS011;57790;51.356;-2.906;2023-08-08T04:58:48;6.45;;;1.10;;
70369;SDS011;57790;51.356;-2.906;2023-08-08T05:01:49;3.40;;;0.70;;
70369;SDS011;57790;51.356;-2.906;2023-08-08T05:04:49;3.57;;;0.80;;
70369;SDS011;57790;51.356;-2.906;2023-08-08T05:07:50;3.30;;;1.00;;
70369;SDS011;57790;51.356;-2.906;2023-08-08T05:10:50;4.43;;;1.10;;
70369;SDS011;57790;51.356;-2.906;2023-08-08T05:13:50;3.20;;;0.80;;
70369;SDS011;57790;51.356;-2.906;2023-08-08T05:16:51;3.60;;;1.00;;
70369;SDS011;57790;51.356;-2.906;2023-08-08T05:19:52;4.00;;;1.00;;
70369;SDS011;57790;51.356;-2.906;2023-08-08T05:22:52;3.53;;;0.80;;
70369;SDS011;57790;51.356;-2.906;2023-08-08T05:25:52;3.28;;;0.70;;
70369;SDS011;57790;51.356;-2.906;2023-08-08T05:28:53;4.70;;;1.10;;
70369;SDS011;57790;51.356;-2.906;2023-08-08T05:31:53;3.97;;;0.90;;
70369;SDS011;57790;51.356;-2.906;2023-08-08T05:34:54;5.03;;;1.00;;
70369;SDS011;57790;51.356;-2.906;2023-08-08T05:37:56;4.27;;;1.00;;
70369;SDS011;57790;51.356;-2.906;2023-08-08T05:40:57;4.15;;;0.90;;
70369;SDS011;57790;51.356;-2.906;2023-08-08T05:43:57;3.80;;;0.97;;
70369;SDS011;57790;51.356;-2.906;2023-08-08T05:46:58;3.13;;;0.90;;
70369;SDS011;57790;51.356;-2.906;2023-08-08T05:49:58;4.00;;;0.90;;
70369;SDS011;57790;51.356;-2.906;2023-08-08T05:52:59;5.32;;;1.10;;
70369;SDS011;57790;51.356;-2.906;2023-08-08T05:55:59;4.00;;;1.00;;
70369;SDS011;57790;51.356;-2.906;2023-08-08T05:58:59;5.27;;;1.10;;
70369;SDS011;57790;51.356;-2.906;2023-08-08T06:02:00;3.10;;;0.90;;
70369;SDS011;57790;51.356;-2.906;2023-08-08T06:05:00;4.47;;;1.00;;
70369;SDS011;57790;51.356;-2.906;2023-08-08T06:08:01;4.80;;;0.82;;
70369;SDS011;57790;51.356;-2.906;2023-08-08T06:11:01;4.00;;;1.00;;
70369;SDS011;57790;51.356;-2.906;2023-08-08T06:14:02;4.00;;;1.00;;
70369;SDS011;57790;51.356;-2.906;2023-08-08T06:17:02;4.77;;;1.20;;
70369;SDS011;57790;51.356;-2.906;2023-08-08T06:20:03;3.88;;;1.00;;
70369;SDS011;57790;51.356;-2.906;2023-08-08T06:23:04;4.22;;;1.02;;
70369;SDS011;57790;51.356;-2.906;2023-08-08T06:26:05;3.73;;;1.03;;
70369;SDS011;57790;51.356;-2.906;2023-08-08T06:29:05;3.83;;;0.80;;
70369;SDS011;57790;51.356;-2.906;2023-08-08T06:32:06;2.83;;;0.82;;
70369;SDS011;57790;51.356;-2.906;2023-08-08T06:35:07;3.97;;;1.03;;
70369;SDS011;57790;51.356;-2.906;2023-08-08T06:38:09;5.22;;;1.10;;
70369;SDS011;57790;51.356;-2.906;2023-08-08T06:41:10;7.57;;;1.07;;
70369;SDS011;57790;51.356;-2.906;2023-08-08T06:44:10;4.47;;;1.10;;
70369;SDS011;57790;51.356;-2.906;2023-08-08T06:47:11;5.03;;;1.13;;
70369;SDS011;57790;51.356;-2.906;2023-08-08T06:50:11;5.47;;;1.10;;
70369;SDS011;57790;51.356;-2.906;2023-08-08T06:53:12;5.03;;;1.10;;
70369;SDS011;57790;51.356;-2.906;2023-08-08T06:56:12;5.33;;;1.27;;
70369;SDS011;57790;51.356;-2.906;2023-08-08T06:59:12;6.18;;;1.40;;
70369;SDS011;57790;51.356;-2.906;2023-08-08T07:02:13;9.47;;;1.47;;
70369;SDS011;57790;51.356;-2.906;2023-08-08T07:05:13;15.10;;;2.47;;
70369;SDS011;57790;51.356;-2.906;2023-08-08T07:08:14;9.77;;;2.00;;
70369;SDS011;57790;51.356;-2.906;2023-08-08T07:11:14;7.35;;;1.50;;
70369;SDS011;57790;51.356;-2.906;2023-08-08T07:14:15;8.53;;;1.80;;
70369;SDS011;57790;51.356;-2.906;2023-08-08T07:17:15;9.20;;;1.40;;
70369;SDS011;57790;51.356;-2.906;2023-08-08T07:20:15;7.43;;;1.60;;
70369;SDS011;57790;51.356;-2.906;2023-08-08T07:23:17;5.22;;;1.40;;
70369;SDS011;57790;51.356;-2.906;2023-08-08T07:26:18;7.83;;;1.30;;
70369;SDS011;57790;51.356;-2.906;2023-08-08T07:29:18;6.50;;;1.30;;
70369;SDS011;57790;51.356;-2.906;2023-08-08T07:32:19;6.05;;;1.27;;
70369;SDS011;57790;51.356;-2.906;2023-08-08T07:35:19;5.53;;;1.30;;
70369;SDS011;57790;51.356;-2.906;2023-08-08T07:38:19;5.77;;;1.53;;
70369;SDS011;57790;51.356;-2.906;2023-08-08T07:41:20;3.57;;;1.10;;
70369;SDS011;57790;51.356;-2.906;2023-08-08T07:44:21;3.60;;;1.25;;
70369;SDS011;57790;51.356;-2.906;2023-08-08T07:47:21;4.60;;;0.97;;
70369;SDS011;57790;51.356;-2.906;2023-08-08T07:50:22;3.90;;;1.00;;
70369;SDS011;57790;51.356;-2.906;2023-08-08T07:53:22;4.03;;;1.00;;
70369;SDS011;57790;51.356;-2.906;2023-08-08T07:56:23;4.55;;;1.00;;
70369;SDS011;57790;51.356;-2.906;2023-08-08T07:59:23;3.80;;;1.20;;
70369;SDS011;57790;51.356;-2.906;2023-08-08T08:02:24;4.53;;;1.20;;
70369;SDS011;57790;51.356;-2.906;2023-08-08T08:05:24;4.00;;;1.27;;
70369;SDS011;57790;51.356;-2.906;2023-08-08T08:08:24;4.75;;;1.20;;
70369;SDS011;57790;51.356;-2.906;2023-08-08T08:11:25;3.77;;;1.20;;
70369;SDS011;57790;51.356;-2.906;2023-08-08T08:14:25;2.83;;;1.00;;
70369;SDS011;57790;51.356;-2.906;2023-08-08T08:17:26;3.63;;;1.20;;
70369;SDS011;57790;51.356;-2.906;2023-08-08T08:20:27;3.95;;;1.20;;
70369;SDS011;57790;51.356;-2.906;2023-08-08T08:23:28;5.60;;;1.10;;
70369;SDS011;57790;51.356;-2.906;2023-08-08T08:26:29;2.95;;;0.90;;
70369;SDS011;57790;51.356;-2.906;2023-08-08T08:29:29;4.80;;;1.10;;
70369;SDS011;57790;51.356;-2.906;2023-08-08T08:32:34;4.80;;;1.20;;
70369;SDS011;57790;51.356;-2.906;2023-08-08T08:35:35;4.72;;;1.23;;
70369;SDS011;57790;51.356;-2.906;2023-08-08T08:38:36;6.47;;;1.10;;
70369;SDS011;57790;51.356;-2.906;2023-08-08T08:41:36;3.47;;;1.00;;
70369;SDS011;57790;51.356;-2.906;2023-08-08T08:44:37;4.07;;;1.00;;
70369;SDS011;57790;51.356;-2.906;2023-08-08T08:47:40;3.67;;;0.90;;
70369;SDS011;57790;51.356;-2.906;2023-08-08T08:50:45;4.80;;;1.55;;
70369;SDS011;57790;51.356;-2.906;2023-08-08T08:53:48;5.10;;;1.17;;
70369;SDS011;57790;51.356;-2.906;2023-08-08T08:56:48;2.67;;;1.03;;
70369;SDS011;57790;51.356;-2.906;2023-08-08T08:59:50;4.50;;;1.00;;
70369;SDS011;57790;51.356;-2.906;2023-08-08T09:02:51;4.60;;;1.00;;
70369;SDS011;57790;51.356;-2.906;2023-08-08T09:05:55;4.03;;;1.10;;
70369;SDS011;57790;51.356;-2.906;2023-08-08T09:08:57;4.37;;;1.07;;
70369;SDS011;57790;51.356;-2.906;2023-08-08T09:11:57;3.30;;;0.95;;
70369;SDS011;57790;51.356;-2.906;2023-08-08T09:14:57;4.00;;;0.93;;
70369;SDS011;57790;51.356;-2.906;2023-08-08T09:17:58;3.33;;;1.00;;
70369;SDS011;57790;51.356;-2.906;2023-08-08T09:20:58;4.13;;;1.10;;
70369;SDS011;57790;51.356;-2.906;2023-08-08T09:23:59;3.95;;;1.35;;
70369;SDS011;57790;51.356;-2.906;2023-08-08T09:27:00;3.60;;;1.00;;
70369;SDS011;57790;51.356;-2.906;2023-08-08T09:30:00;5.87;;;1.40;;
70369;SDS011;57790;51.356;-2.906;2023-08-08T09:33:01;4.50;;;1.00;;
70369;SDS011;57790;51.356;-2.906;2023-08-08T09:36:02;5.63;;;1.42;;
70369;SDS011;57790;51.356;-2.906;2023-08-08T09:39:02;4.73;;;1.10;;
70369;SDS011;57790;51.356;-2.906;2023-08-08T09:42:03;4.50;;;1.10;;
70369;SDS011;57790;51.356;-2.906;2023-08-08T09:45:04;5.18;;;1.20;;
70369;SDS011;57790;51.356;-2.906;2023-08-08T09:48:05;4.43;;;1.13;;
70369;SDS011;57790;51.356;-2.906;2023-08-08T09:51:06;3.58;;;1.10;;
70369;SDS011;57790;51.356;-2.906;2023-08-08T09:54:07;4.10;;;1.10;;
70369;SDS011;57790;51.356;-2.906;2023-08-08T09:57:09;3.73;;;1.10;;
70369;SDS011;57790;51.356;-2.906;2023-08-08T10:00:10;3.80;;;0.90;;
70369;SDS011;57790;51.356;-2.906;2023-08-08T10:03:16;3.75;;;1.00;;
70369;SDS011;57790;51.356;-2.906;2023-08-08T10:06:17;4.07;;;1.00;;
70369;SDS011;57790;51.356;-2.906;2023-08-08T10:09:18;2.30;;;0.80;;
70369;SDS011;57790;51.356;-2.906;2023-08-08T10:12:18;4.20;;;1.02;;
70369;SDS011;57790;51.356;-2.906;2023-08-08T10:15:19;3.10;;;0.93;;
70369;SDS011;57790;51.356;-2.906;2023-08-08T10:18:26;3.47;;;1.00;;
70369;SDS011;57790;51.356;-2.906;2023-08-08T10:21:27;3.33;;;0.90;;
70369;SDS011;57790;51.356;-2.906;2023-08-08T10:24:35;2.35;;;0.85;;
70369;SDS011;57790;51.356;-2.906;2023-08-08T10:27:36;3.33;;;1.00;;
70369;SDS011;57790;51.356;-2.906;2023-08-08T10:30:44;2.20;;;0.60;;
70369;SDS011;57790;51.356;-2.906;2023-08-08T10:33:48;2.30;;;0.70;;
70369;SDS011;57790;51.356;-2.906;2023-08-08T10:36:50;3.17;;;0.80;;
70369;SDS011;57790;51.356;-2.906;2023-08-08T10:39:55;3.28;;;0.70;;
70369;SDS011;57790;51.356;-2.906;2023-08-08T10:42:58;3.47;;;0.80;;
70369;SDS011;57790;51.356;-2.906;2023-08-08T10:46:00;3.27;;;0.77;;
70369;SDS011;57790;51.356;-2.906;2023-08-08T10:49:01;2.22;;;0.80;;
70369;SDS011;57790;51.356;-2.906;2023-08-08T10:52:05;2.65;;;0.80;;
70369;SDS011;57790;51.356;-2.906;2023-08-08T10:55:07;2.03;;;0.70;;
70369;SDS011;57790;51.356;-2.906;2023-08-08T10:58:18;2.15;;;0.50;;
70369;SDS011;57790;51.356;-2.906;2023-08-08T11:01:20;1.70;;;0.80;;
70369;SDS011;57790;51.356;-2.906;2023-08-08T11:04:25;2.25;;;0.70;;
70369;SDS011;57790;51.356;-2.906;2023-08-08T11:07:27;2.70;;;0.70;;
70369;SDS011;57790;51.356;-2.906;2023-08-08T11:10:28;2.47;;;0.60;;
70369;SDS011;57790;51.356;-2.906;2023-08-08T11:13:31;1.33;;;0.60;;
70369;SDS011;57790;51.356;-2.906;2023-08-08T11:16:32;2.20;;;0.70;;
70369;SDS011;57790;51.356;-2.906;2023-08-08T11:19:38;2.73;;;0.70;;
70369;SDS011;57790;51.356;-2.906;2023-08-08T11:22:39;2.35;;;0.70;;
70369;SDS011;57790;51.356;-2.906;2023-08-08T11:25:40;2.50;;;0.67;;
70369;SDS011;57790;51.356;-2.906;2023-08-08T11:28:48;1.50;;;0.50;;
70369;SDS011;57790;51.356;-2.906;2023-08-08T11:31:50;2.42;;;0.60;;
70369;SDS011;57790;51.356;-2.906;2023-08-08T11:34:51;2.60;;;0.60;;
70369;SDS011;57790;51.356;-2.906;2023-08-08T11:37:52;1.38;;;0.60;;
70369;SDS011;57790;51.356;-2.906;2023-08-08T11:40:54;1.60;;;0.50;;
70369;SDS011;57790;51.356;-2.906;2023-08-08T11:43:55;1.20;;;0.50;;
70369;SDS011;57790;51.356;-2.906;2023-08-08T11:46:59;2.60;;;0.60;;
70369;SDS011;57790;51.356;-2.906;2023-08-08T11:50:00;2.17;;;0.50;;
70369;SDS011;57790;51.356;-2.906;2023-08-08T11:53:01;1.43;;;0.50;;
70369;SDS011;57790;51.356;-2.906;2023-08-08T11:56:03;2.15;;;0.70;;
70369;SDS011;57790;51.356;-2.906;2023-08-08T11:59:04;1.92;;;0.57;;
70369;SDS011;57790;51.356;-2.906;2023-08-08T12:02:05;3.08;;;0.63;;
70369;SDS011;57790;51.356;-2.906;2023-08-08T12:05:06;1.67;;;0.50;;
70369;SDS011;57790;51.356;-2.906;2023-08-08T12:08:09;1.88;;;0.80;;
70369;SDS011;57790;51.356;-2.906;2023-08-08T12:11:10;1.73;;;0.60;;
70369;SDS011;57790;51.356;-2.906;2023-08-08T12:14:11;2.17;;;0.90;;
70369;SDS011;57790;51.356;-2.906;2023-08-08T12:17:14;2.63;;;0.65;;
70369;SDS011;57790;51.356;-2.906;2023-08-08T12:20:15;1.50;;;0.50;;
70369;SDS011;57790;51.356;-2.906;2023-08-08T12:23:16;1.90;;;0.60;;
70369;SDS011;57790;51.356;-2.906;2023-08-08T12:26:17;2.30;;;0.70;;
70369;SDS011;57790;51.356;-2.906;2023-08-08T12:29:17;1.73;;;0.60;;
70369;SDS011;57790;51.356;-2.906;2023-08-08T12:32:22;3.20;;;0.80;;
70369;SDS011;57790;51.356;-2.906;2023-08-08T12:35:26;1.63;;;0.60;;
70369;SDS011;57790;51.356;-2.906;2023-08-08T12:38:27;2.20;;;0.70;;
70369;SDS011;57790;51.356;-2.906;2023-08-08T12:41:28;1.80;;;0.60;;
70369;SDS011;57790;51.356;-2.906;2023-08-08T12:44:29;1.90;;;0.60;;
70369;SDS011;57790;51.356;-2.906;2023-08-08T12:47:30;2.67;;;0.67;;
70369;SDS011;57790;51.356;-2.906;2023-08-08T12:50:31;2.78;;;0.50;;
70369;SDS011;57790;51.356;-2.906;2023-08-08T12:53:32;2.13;;;0.60;;
70369;SDS011;57790;51.356;-2.906;2023-08-08T12:56:33;1.70;;;0.60;;
70369;SDS011;57790;51.356;-2.906;2023-08-08T12:59:34;1.20;;;0.50;;
70369;SDS011;57790;51.356;-2.906;2023-08-08T13:02:34;1.90;;;0.52;;
70369;SDS011;57790;51.356;-2.906;2023-08-08T13:05:34;1.80;;;0.60;;
70369;SDS011;57790;51.356;-2.906;2023-08-08T13:08:35;1.60;;;0.60;;
70369;SDS011;57790;51.356;-2.906;2023-08-08T13:11:35;1.77;;;0.50;;
70369;SDS011;57790;51.356;-2.906;2023-08-08T13:14:36;1.87;;;0.60;;
70369;SDS011;57790;51.356;-2.906;2023-08-08T13:17:36;2.10;;;0.52;;
70369;SDS011;57790;51.356;-2.906;2023-08-08T13:20:37;3.23;;;0.50;;
70369;SDS011;57790;51.356;-2.906;2023-08-08T13:23:37;1.30;;;0.50;;
70369;SDS011;57790;51.356;-2.906;2023-08-08T13:26:40;2.23;;;0.57;;
70369;SDS011;57790;51.356;-2.906;2023-08-08T13:29:41;1.25;;;0.50;;
70369;SDS011;57790;51.356;-2.906;2023-08-08T13:32:41;2.47;;;0.70;;
70369;SDS011;57790;51.356;-2.906;2023-08-08T13:35:42;2.85;;;0.55;;
70369;SDS011;57790;51.356;-2.906;2023-08-08T13:38:42;3.27;;;0.57;;
70369;SDS011;57790;51.356;-2.906;2023-08-08T13:41:42;5.07;;;0.90;;
70369;SDS011;57790;51.356;-2.906;2023-08-08T13:44:43;2.70;;;0.63;;
70369;SDS011;57790;51.356;-2.906;2023-08-08T13:47:43;3.03;;;0.65;;
70369;SDS011;57790;51.356;-2.906;2023-08-08T13:50:44;3.70;;;0.80;;
70369;SDS011;57790;51.356;-2.906;2023-08-08T13:53:44;3.33;;;0.70;;
70369;SDS011;57790;51.356;-2.906;2023-08-08T13:56:45;1.73;;;0.60;;
70369;SDS011;57790;51.356;-2.906;2023-08-08T13:59:45;3.10;;;0.70;;
70369;SDS011;57790;51.356;-2.906;2023-08-08T14:02:46;3.63;;;0.73;;
70369;SDS011;57790;51.356;-2.906;2023-08-08T14:05:46;2.37;;;0.70;;
70369;SDS011;57790;51.356;-2.906;2023-08-08T14:08:46;3.30;;;0.70;;
70369;SDS011;57790;51.356;-2.906;2023-08-08T14:11:48;3.67;;;0.80;;
70369;SDS011;57790;51.356;-2.906;2023-08-08T14:14:48;2.77;;;0.60;;
70369;SDS011;57790;51.356;-2.906;2023-08-08T14:17:49;2.70;;;0.80;;
70369;SDS011;57790;51.356;-2.906;2023-08-08T14:20:49;2.30;;;0.60;;
70369;SDS011;57790;51.356;-2.906;2023-08-08T14:23:49;4.50;;;0.70;;
70369;SDS011;57790;51.356;-2.906;2023-08-08T14:26:50;3.63;;;0.90;;
70369;SDS011;57790;51.356;-2.906;2023-08-08T14:29:51;4.13;;;0.67;;
70369;SDS011;57790;51.356;-2.906;2023-08-08T14:32:51;2.40;;;0.60;;
70369;SDS011;57790;51.356;-2.906;2023-08-08T14:35:52;3.10;;;0.70;;
70369;SDS011;57790;51.356;-2.906;2023-08-08T14:38:52;2.07;;;0.50;;
70369;SDS011;57790;51.356;-2.906;2023-08-08T14:41:53;2.88;;;0.60;;
70369;SDS011;57790;51.356;-2.906;2023-08-08T14:44:53;3.87;;;0.80;;
70369;SDS011;57790;51.356;-2.906;2023-08-08T14:47:54;3.53;;;0.70;;
70369;SDS011;57790;51.356;-2.906;2023-08-08T14:50:54;2.97;;;0.70;;
70369;SDS011;57790;51.356;-2.906;2023-08-08T14:53:54;2.97;;;0.63;;
70369;SDS011;57790;51.356;-2.906;2023-08-08T14:56:55;3.53;;;0.70;;
70369;SDS011;57790;51.356;-2.906;2023-08-08T14:59:57;3.77;;;0.80;;
70369;SDS011;57790;51.356;-2.906;2023-08-08T15:02:58;4.93;;;0.82;;
70369;SDS011;57790;51.356;-2.906;2023-08-08T15:05:58;2.97;;;0.87;;
70369;SDS011;57790;51.356;-2.906;2023-08-08T15:08:59;4.00;;;0.70;;
70369;SDS011;57790;51.356;-2.906;2023-08-08T15:12:00;2.25;;;0.68;;
70369;SDS011;57790;51.356;-2.906;2023-08-08T15:15:01;3.03;;;0.70;;
70369;SDS011;57790;51.356;-2.906;2023-08-08T15:18:03;3.72;;;0.90;;
70369;SDS011;57790;51.356;-2.906;2023-08-08T15:21:04;5.22;;;0.70;;
70369;SDS011;57790;51.356;-2.906;2023-08-08T15:24:05;3.33;;;0.70;;
70369;SDS011;57790;51.356;-2.906;2023-08-08T15:27:06;3.65;;;0.70;;
70369;SDS011;57790;51.356;-2.906;2023-08-08T15:30:07;3.10;;;0.70;;
70369;SDS011;57790;51.356;-2.906;2023-08-08T15:33:08;4.70;;;0.85;;
70369;SDS011;57790;51.356;-2.906;2023-08-08T15:36:08;5.37;;;0.80;;
70369;SDS011;57790;51.356;-2.906;2023-08-08T15:39:09;2.63;;;0.70;;
70369;SDS011;57790;51.356;-2.906;2023-08-08T15:42:09;5.13;;;0.70;;
70369;SDS011;57790;51.356;-2.906;2023-08-08T15:45:10;3.10;;;0.70;;
70369;SDS011;57790;51.356;-2.906;2023-08-08T15:48:12;3.92;;;0.75;;
70369;SDS011;57790;51.356;-2.906;2023-08-08T15:51:13;3.70;;;0.75;;
70369;SDS011;57790;51.356;-2.906;2023-08-08T15:54:13;4.33;;;0.80;;
70369;SDS011;57790;51.356;-2.906;2023-08-08T15:57:14;4.27;;;0.87;;
70369;SDS011;57790;51.356;-2.906;2023-08-08T16:00:15;3.50;;;0.70;;
70369;SDS011;57790;51.356;-2.906;2023-08-08T16:03:15;4.47;;;0.70;;
70369;SDS011;57790;51.356;-2.906;2023-08-08T16:06:16;4.60;;;0.80;;
70369;SDS011;57790;51.356;-2.906;2023-08-08T16:09:16;4.50;;;0.80;;
70369;SDS011;57790;51.356;-2.906;2023-08-08T16:12:16;2.67;;;0.70;;
70369;SDS011;57790;51.356;-2.906;2023-08-08T16:15:17;2.10;;;0.77;;
70369;SDS011;57790;51.356;-2.906;2023-08-08T16:18:18;2.65;;;0.70;;
70369;SDS011;57790;51.356;-2.906;2023-08-08T16:21:18;2.30;;;0.63;;
70369;SDS011;57790;51.356;-2.906;2023-08-08T16:24:19;3.60;;;1.20;;
70369;SDS011;57790;51.356;-2.906;2023-08-08T16:27:20;3.22;;;0.60;;
70369;SDS011;57790;51.356;-2.906;2023-08-08T16:30:20;4.13;;;0.80;;
70369;SDS011;57790;51.356;-2.906;2023-08-08T16:33:21;5.73;;;0.80;;
70369;SDS011;57790;51.356;-2.906;2023-08-08T16:36:21;3.97;;;0.87;;
70369;SDS011;57790;51.356;-2.906;2023-08-08T16:39:21;7.38;;;0.93;;
70369;SDS011;57790;51.356;-2.906;2023-08-08T16:42:22;6.63;;;0.90;;
70369;SDS011;57790;51.356;-2.906;2023-08-08T16:45:23;6.77;;;0.80;;
70369;SDS011;57790;51.356;-2.906;2023-08-08T16:48:24;8.27;;;1.10;;
70369;SDS011;57790;51.356;-2.906;2023-08-08T16:51:25;3.20;;;0.70;;
70369;SDS011;57790;51.356;-2.906;2023-08-08T16:54:25;4.50;;;0.87;;
70369;SDS011;57790;51.356;-2.906;2023-08-08T16:57:26;3.83;;;0.70;;
70369;SDS011;57790;51.356;-2.906;2023-08-08T17:00:26;4.53;;;0.80;;
70369;SDS011;57790;51.356;-2.906;2023-08-08T17:03:27;3.97;;;0.77;;
70369;SDS011;57790;51.356;-2.906;2023-08-08T17:06:27;3.17;;;0.68;;
70369;SDS011;57790;51.356;-2.906;2023-08-08T17:09:27;3.30;;;0.60;;
70369;SDS011;57790;51.356;-2.906;2023-08-08T17:12:28;2.87;;;0.77;;
70369;SDS011;57790;51.356;-2.906;2023-08-08T17:15:28;3.00;;;0.53;;
70369;SDS011;57790;51.356;-2.906;2023-08-08T17:18:29;2.63;;;0.87;;
70369;SDS011;57790;51.356;-2.906;2023-08-08T17:21:29;5.13;;;0.70;;
70369;SDS011;57790;51.356;-2.906;2023-08-08T17:24:30;2.47;;;0.70;;
70369;SDS011;57790;51.356;-2.906;2023-08-08T17:27:30;2.53;;;0.67;;
70369;SDS011;57790;51.356;-2.906;2023-08-08T17:30:35;4.53;;;0.68;;
70369;SDS011;57790;51.356;-2.906;2023-08-08T17:33:35;3.93;;;0.70;;
70369;SDS011;57790;51.356;-2.906;2023-08-08T17:36:36;2.53;;;0.70;;
70369;SDS011;57790;51.356;-2.906;2023-08-08T17:39:36;2.93;;;0.90;;
70369;SDS011;57790;51.356;-2.906;2023-08-08T17:42:36;3.65;;;0.80;;
70369;SDS011;57790;51.356;-2.906;2023-08-08T17:45:37;4.57;;;0.87;;
70369;SDS011;57790;51.356;-2.906;2023-08-08T17:48:38;4.30;;;0.80;;
70369;SDS011;57790;51.356;-2.906;2023-08-08T17:51:38;4.10;;;0.70;;
70369;SDS011;57790;51.356;-2.906;2023-08-08T17:54:38;1.92;;;0.52;;
70369;SDS011;57790;51.356;-2.906;2023-08-08T17:57:39;2.57;;;0.70;;